createdAt,value
2023-01-07T00:01:28.794Z,15.02
2023-01-07T00:03:57.175Z,14.57
2023-01-07T00:06:32.744Z,14.80
2023-01-07T00:09:00.245Z,15.77
2023-01-07T00:11:29.816Z,15.98
2023-01-07T00:13:58.422Z,15.77
2023-01-07T00:16:29.755Z,15.88
2023-01-07T00:18:58.448Z,16.07
2023-01-07T00:21:26.705Z,14.77
2023-01-07T00:23:55.419Z,18.05
2023-01-07T00:26:23.807Z,17.48
2023-01-07T00:28:52.459Z,17.70
2023-01-07T00:31:21.907Z,16.17
2023-01-07T00:33:52.317Z,15.82
2023-01-07T00:36:19.384Z,15.70
2023-01-07T00:38:46.405Z,14.65
2023-01-07T00:41:20.595Z,15.30
2023-01-07T00:43:47.268Z,16.80
2023-01-07T00:46:15.417Z,15.23
2023-01-07T00:48:43.101Z,14.73
2023-01-07T00:51:11.643Z,16.33
2023-01-07T00:53:40.544Z,15.82
2023-01-07T00:56:08.845Z,17.53
2023-01-07T00:58:35.317Z,16.83
2023-01-07T01:01:02.981Z,15.98
2023-01-07T01:03:31.171Z,16.55
2023-01-07T01:06:05.128Z,15.02
2023-01-07T01:08:32.488Z,15.93
2023-01-07T01:11:09.639Z,15.52
2023-01-07T01:13:36.986Z,16.65
2023-01-07T01:16:08.665Z,16.08
2023-01-07T01:18:35.718Z,14.05
2023-01-07T01:21:11.579Z,16.10
2023-01-07T01:23:38.439Z,15.77
2023-01-07T01:26:06.154Z,16.27
2023-01-07T01:28:33.862Z,15.00
2023-01-07T01:31:00.865Z,15.65
2023-01-07T01:33:27.538Z,16.90
2023-01-07T01:35:57.208Z,15.68
2023-01-07T01:38:24.197Z,13.35
2023-01-07T01:40:50.752Z,15.57
2023-01-07T01:43:36.315Z,12.68
2023-01-07T01:46:25.805Z,14.37
2023-01-07T01:48:58.666Z,12.07
2023-01-07T01:51:27.448Z,14.55
2023-01-07T01:53:59.916Z,15.32
2023-01-07T01:56:35.887Z,13.38
2023-01-07T01:59:06.677Z,14.30
2023-01-07T02:01:39.904Z,13.48
2023-01-07T02:04:12.855Z,12.25
2023-01-07T02:06:49.947Z,13.82
2023-01-07T02:09:16.753Z,16.30
2023-01-07T02:11:59.952Z,14.37
2023-01-07T02:14:26.535Z,15.10
2023-01-07T02:17:32.753Z,12.10
2023-01-07T02:20:08.581Z,14.40
2023-01-07T02:23:02.513Z,15.18
2023-01-07T02:26:02.569Z,14.03
2023-01-07T02:28:31.759Z,15.13
2023-01-07T02:31:27.893Z,15.98
2023-01-07T02:34:15.864Z,15.43
2023-01-07T02:37:04.617Z,16.35
2023-01-07T02:39:38.621Z,17.90
2023-01-07T02:42:15.908Z,16.38
2023-01-07T02:45:00.476Z,15.82
2023-01-07T02:47:33.283Z,16.02
2023-01-07T02:49:59.778Z,16.10
2023-01-07T02:52:28.980Z,17.30
2023-01-07T02:55:12.198Z,18.23
2023-01-07T02:57:44.516Z,17.10
2023-01-07T03:00:32.126Z,15.60
2023-01-07T03:03:29.768Z,18.90
2023-01-07T03:06:19.534Z,17.97
2023-01-07T03:09:10.316Z,21.02
2023-01-07T03:11:48.638Z,18.27
2023-01-07T03:14:31.565Z,19.65
2023-01-07T03:17:02.812Z,18.38
2023-01-07T03:19:32.641Z,19.90
2023-01-07T03:22:01.945Z,17.70
2023-01-07T03:24:31.159Z,21.73
2023-01-07T03:27:00.413Z,18.92
2023-01-07T03:29:28.017Z,18.50
2023-01-07T03:32:14.288Z,18.37
2023-01-07T03:34:42.748Z,17.88
2023-01-07T03:37:16.410Z,19.75
2023-01-07T03:39:45.146Z,19.27
2023-01-07T03:42:13.304Z,22.83
2023-01-07T03:44:39.908Z,21.47
2023-01-07T03:47:07.358Z,18.30
2023-01-07T03:49:36.921Z,20.40
2023-01-07T03:52:04.065Z,16.75
2023-01-07T03:54:30.642Z,18.35
2023-01-07T03:56:57.156Z,18.03
2023-01-07T03:59:23.725Z,19.40
2023-01-07T04:01:50.445Z,18.13
2023-01-07T04:04:17.441Z,19.48
2023-01-07T04:06:44.035Z,21.60
2023-01-07T04:09:12.204Z,17.43
2023-01-07T04:11:38.736Z,16.55
2023-01-07T04:14:05.186Z,17.13
2023-01-07T04:16:31.656Z,18.27
2023-01-07T04:18:58.192Z,18.83
2023-01-07T04:21:24.761Z,17.70
2023-01-07T04:23:51.305Z,18.95
2023-01-07T04:26:17.899Z,18.13
2023-01-07T04:28:44.400Z,18.45
2023-01-07T04:31:11.067Z,16.85
2023-01-07T04:33:37.633Z,15.90
2023-01-07T04:36:04.484Z,17.30
2023-01-07T04:38:31.274Z,15.82
2023-01-07T04:40:57.889Z,14.98
2023-01-07T04:43:24.398Z,15.10
2023-01-07T04:45:51.156Z,16.23
2023-01-07T04:48:17.676Z,14.60
2023-01-07T04:50:44.231Z,14.23
2023-01-07T04:53:10.682Z,13.15
2023-01-07T04:55:37.216Z,15.63
2023-01-07T04:58:03.743Z,13.80
2023-01-07T05:00:30.345Z,12.20
2023-01-07T05:02:56.855Z,11.75
2023-01-07T05:05:23.398Z,13.32
2023-01-07T05:07:49.840Z,13.05
2023-01-07T05:10:16.360Z,13.83
2023-01-07T05:12:42.788Z,11.63
2023-01-07T05:15:09.837Z,12.90
2023-01-07T05:17:36.386Z,11.10
2023-01-07T05:20:03.931Z,12.48
2023-01-07T05:22:30.353Z,10.27
2023-01-07T05:24:56.953Z,9.85
2023-01-07T05:27:23.436Z,10.45
2023-01-07T05:29:49.959Z,9.23
2023-01-07T05:32:16.584Z,10.05
2023-01-07T05:34:43.162Z,11.77
2023-01-07T05:37:09.664Z,10.85
2023-01-07T05:39:36.146Z,9.23
2023-01-07T05:42:02.689Z,10.73
2023-01-07T05:44:29.183Z,10.25
2023-01-07T05:46:55.817Z,9.03
2023-01-07T05:49:22.365Z,9.02
2023-01-07T05:51:48.885Z,9.48
2023-01-07T05:54:15.321Z,8.02
2023-01-07T05:56:41.753Z,9.88
2023-01-07T05:59:08.232Z,10.30
2023-01-07T06:01:34.787Z,8.35
2023-01-07T06:04:01.278Z,8.98
2023-01-07T06:06:27.822Z,10.60
2023-01-07T06:08:54.268Z,9.73
2023-01-07T06:11:20.801Z,8.60
2023-01-07T06:13:47.291Z,8.43
2023-01-07T06:16:14.412Z,10.13
2023-01-07T06:18:40.924Z,8.40
2023-01-07T06:21:07.568Z,8.27
2023-01-07T06:23:34.147Z,8.83
2023-01-07T06:26:00.589Z,8.40
2023-01-07T06:28:27.175Z,7.30
2023-01-07T06:30:53.691Z,7.88
2023-01-07T06:33:21.294Z,8.30
2023-01-07T06:35:47.784Z,7.17
2023-01-07T06:38:14.498Z,7.22
2023-01-07T06:40:41.034Z,7.28
2023-01-07T06:43:07.609Z,6.75
2023-01-07T06:45:34.181Z,7.82
2023-01-07T06:48:00.695Z,7.10
2023-01-07T06:50:27.215Z,6.53
2023-01-07T06:52:53.741Z,7.03
2023-01-07T06:55:20.223Z,7.70
2023-01-07T06:57:46.690Z,5.85
2023-01-07T07:00:13.616Z,5.70
2023-01-07T07:02:40.140Z,6.25
2023-01-07T07:05:06.846Z,7.22
2023-01-07T07:07:33.348Z,6.22
2023-01-07T07:09:59.770Z,6.85
2023-01-07T07:12:26.291Z,7.53
2023-01-07T07:14:52.738Z,11.02
2023-01-07T07:17:19.265Z,6.07
2023-01-07T07:19:45.772Z,7.95
2023-01-07T07:22:12.374Z,6.50
2023-01-07T07:24:38.859Z,9.63
2023-01-07T07:27:05.384Z,6.28
2023-01-07T07:29:31.856Z,7.28
2023-01-07T07:31:58.464Z,6.30
2023-01-07T07:34:24.931Z,6.38
2023-01-07T07:36:51.475Z,7.43
2023-01-07T07:39:17.962Z,7.35
2023-01-07T07:41:44.435Z,5.82
2023-01-07T07:44:11.138Z,7.43
2023-01-07T07:46:37.947Z,5.90
2023-01-07T07:49:04.817Z,5.50
2023-01-07T07:51:31.670Z,6.30
2023-01-07T07:53:58.259Z,6.68
2023-01-07T07:56:24.725Z,5.65
2023-01-07T07:58:51.209Z,6.32
2023-01-07T08:01:17.758Z,6.70
2023-01-07T08:03:44.327Z,5.35
2023-01-07T08:06:12.374Z,5.78
2023-01-07T08:08:38.889Z,6.05
2023-01-07T08:11:05.385Z,7.25
2023-01-07T08:13:32.001Z,7.07
2023-01-07T08:15:58.599Z,6.85
2023-01-07T08:18:25.174Z,6.20
2023-01-07T08:20:51.696Z,6.43
2023-01-07T08:23:18.408Z,5.03
2023-01-07T08:25:44.870Z,6.33
2023-01-07T08:28:11.491Z,8.10
2023-01-07T08:30:38.230Z,6.63
2023-01-07T08:33:07.593Z,7.10
2023-01-07T08:35:34.596Z,5.85
2023-01-07T08:38:06.085Z,5.07
2023-01-07T08:40:33.051Z,6.88
2023-01-07T08:43:04.398Z,6.35
2023-01-07T08:45:31.416Z,6.90
2023-01-07T08:47:58.048Z,5.25
2023-01-07T08:50:25.843Z,4.93
2023-01-07T08:52:52.395Z,5.43
2023-01-07T08:55:19.203Z,6.13
2023-01-07T08:57:46.022Z,5.40
2023-01-07T09:00:15.685Z,6.05
2023-01-07T09:02:42.795Z,5.70
2023-01-07T09:05:10.139Z,5.65
2023-01-07T09:07:36.926Z,5.38
2023-01-07T09:10:04.134Z,5.18
2023-01-07T09:12:30.887Z,5.47
2023-01-07T09:14:57.499Z,5.07
2023-01-07T09:17:24.331Z,5.32
2023-01-07T09:19:51.013Z,4.63
2023-01-07T09:22:17.560Z,4.85
2023-01-07T09:24:44.917Z,5.10
2023-01-07T09:27:12.578Z,5.90
2023-01-07T09:29:39.084Z,4.57
2023-01-07T09:32:05.592Z,5.85
2023-01-07T09:34:32.184Z,6.80
2023-01-07T09:36:58.696Z,4.55
2023-01-07T09:39:25.154Z,5.50
2023-01-07T09:41:51.681Z,4.93
2023-01-07T09:44:46.211Z,5.55
2023-01-07T09:47:15.803Z,5.03
2023-01-07T09:49:46.644Z,5.28
2023-01-07T09:52:36.731Z,5.23
2023-01-07T09:55:27.297Z,5.47
2023-01-07T09:57:54.013Z,6.50
2023-01-07T10:00:23.943Z,5.95
2023-01-07T10:03:16.087Z,6.70
2023-01-07T10:06:15.438Z,6.50
2023-01-07T10:09:13.720Z,6.68
2023-01-07T10:12:09.288Z,6.07
2023-01-07T10:14:49.131Z,6.18
2023-01-07T10:17:25.896Z,6.05
2023-01-07T10:20:13.474Z,6.13
2023-01-07T10:22:48.700Z,6.93
2023-01-07T10:25:21.427Z,7.55
2023-01-07T10:27:49.754Z,6.30
2023-01-07T10:30:22.898Z,5.68
2023-01-07T10:32:56.819Z,6.00
2023-01-07T10:35:27.531Z,6.07
2023-01-07T10:37:56.859Z,5.97
2023-01-07T10:40:42.108Z,5.68
2023-01-07T10:43:30.625Z,8.45
2023-01-07T10:46:18.969Z,7.90
2023-01-07T10:49:11.770Z,6.35
2023-01-07T10:52:23.923Z,5.65
2023-01-07T10:55:25.374Z,6.03
2023-01-07T10:57:51.966Z,5.55
2023-01-07T11:00:19.385Z,5.80
2023-01-07T11:02:51.104Z,6.05
2023-01-07T11:05:18.024Z,5.47
2023-01-07T11:07:48.466Z,7.72
2023-01-07T11:10:22.154Z,5.50
2023-01-07T11:12:56.715Z,5.67
2023-01-07T11:15:37.281Z,5.22
2023-01-07T11:18:26.053Z,6.15
2023-01-07T11:20:57.335Z,4.95
2023-01-07T11:23:29.943Z,6.85
2023-01-07T11:26:08.065Z,4.93
2023-01-07T11:28:34.794Z,5.10
2023-01-07T11:31:01.980Z,5.10
2023-01-07T11:34:01.268Z,4.30
2023-01-07T11:36:42.836Z,5.30
2023-01-07T11:39:11.948Z,4.73
2023-01-07T11:41:51.368Z,5.22
2023-01-07T11:44:17.968Z,5.63
2023-01-07T11:46:45.127Z,5.47
2023-01-07T11:49:27.610Z,5.53
2023-01-07T11:51:54.842Z,5.20
2023-01-07T11:54:27.625Z,4.80
2023-01-07T11:57:20.637Z,4.93
2023-01-07T11:59:47.180Z,5.95
2023-01-07T12:02:25.847Z,4.95
2023-01-07T12:04:52.673Z,5.20
2023-01-07T12:07:19.187Z,5.05
2023-01-07T12:09:46.157Z,5.90
2023-01-07T12:12:25.040Z,5.55
2023-01-07T12:14:51.527Z,6.97
2023-01-07T12:17:22.565Z,5.47
2023-01-07T12:20:27.640Z,5.40
2023-01-07T12:23:16.442Z,6.97
2023-01-07T12:25:58.105Z,6.95
2023-01-07T12:28:41.731Z,5.50
2023-01-07T12:31:20.376Z,5.80
2023-01-07T12:34:23.545Z,5.13
2023-01-07T12:36:57.655Z,5.53
2023-01-07T12:39:36.156Z,5.38
2023-01-07T12:42:06.385Z,5.55
2023-01-07T12:44:39.971Z,5.97
2023-01-07T12:47:49.019Z,5.03
2023-01-07T12:50:29.365Z,5.25
2023-01-07T12:53:04.537Z,5.88
2023-01-07T12:55:36.226Z,5.72
2023-01-07T12:58:17.647Z,5.33
2023-01-07T13:01:09.984Z,5.30
2023-01-07T13:04:06.973Z,5.65
2023-01-07T13:06:33.401Z,5.45
2023-01-07T13:09:13.960Z,5.50
2023-01-07T13:11:45.036Z,5.47
2023-01-07T13:14:25.835Z,6.18
2023-01-07T13:16:52.285Z,5.50
2023-01-07T13:19:18.793Z,6.40
2023-01-07T13:21:48.514Z,5.45
2023-01-07T13:24:56.097Z,5.77
2023-01-07T13:27:30.064Z,6.15
2023-01-07T13:29:56.452Z,5.75
2023-01-07T13:32:51.422Z,6.32
2023-01-07T13:35:36.703Z,6.38
2023-01-07T13:38:54.288Z,5.87
2023-01-07T13:41:52.862Z,7.97
2023-01-07T13:44:47.040Z,6.00
2023-01-07T13:47:18.861Z,5.75
2023-01-07T13:49:56.490Z,5.50
2023-01-07T13:52:27.060Z,6.63
2023-01-07T13:54:54.923Z,6.55
2023-01-07T13:57:24.124Z,5.60
2023-01-07T13:59:55.590Z,6.20
2023-01-07T14:02:24.215Z,6.10
2023-01-07T14:05:05.402Z,6.07
2023-01-07T14:07:42.106Z,5.70
2023-01-07T14:10:18.744Z,6.78
2023-01-07T14:13:25.147Z,6.70
2023-01-07T14:16:11.367Z,5.75
2023-01-07T14:18:37.859Z,5.73
2023-01-07T14:21:19.532Z,7.78
2023-01-07T14:23:57.780Z,6.60
2023-01-07T14:26:42.318Z,6.60
2023-01-07T14:29:40.332Z,6.47
2023-01-07T14:32:12.947Z,6.63
2023-01-07T14:34:39.777Z,6.60
2023-01-07T14:37:16.319Z,5.95
2023-01-07T14:39:45.207Z,5.50
2023-01-07T14:42:20.907Z,6.82
2023-01-07T14:44:49.370Z,7.20
2023-01-07T14:47:40.891Z,6.15
2023-01-07T14:50:27.925Z,6.00
2023-01-07T14:53:20.029Z,6.97
2023-01-07T14:56:02.094Z,5.80
2023-01-07T14:58:47.248Z,7.23
2023-01-07T15:01:28.783Z,6.18
2023-01-07T15:04:04.466Z,6.30
2023-01-07T15:06:35.146Z,7.45
2023-01-07T15:09:17.917Z,7.55
2023-01-07T15:11:46.382Z,6.37
2023-01-07T15:14:56.184Z,6.40
2023-01-07T15:17:23.327Z,6.95
2023-01-07T15:19:52.307Z,6.30
2023-01-07T15:22:34.303Z,6.70
2023-01-07T15:25:06.923Z,6.50
2023-01-07T15:27:36.534Z,7.22
2023-01-07T15:30:18.193Z,7.60
2023-01-07T15:33:09.337Z,7.00
2023-01-07T15:35:44.355Z,8.32
2023-01-07T15:38:23.031Z,7.10
2023-01-07T15:40:49.538Z,7.03
2023-01-07T15:43:22.803Z,7.60
2023-01-07T15:46:01.768Z,7.38
2023-01-07T15:48:28.342Z,6.78
2023-01-07T15:50:55.380Z,6.70
2023-01-07T15:53:25.081Z,6.80
2023-01-07T15:56:08.377Z,7.72
2023-01-07T15:58:39.461Z,7.10
2023-01-07T16:01:08.181Z,8.23
2023-01-07T16:03:38.889Z,7.10
2023-01-07T16:06:31.656Z,9.07
2023-01-07T16:08:58.835Z,8.88
2023-01-07T16:11:28.829Z,9.57
2023-01-07T16:14:01.176Z,9.45
2023-01-07T16:16:29.810Z,8.37
2023-01-07T16:19:00.964Z,7.25
2023-01-07T16:21:31.392Z,8.95
2023-01-07T16:23:58.025Z,7.78
2023-01-07T16:26:37.611Z,8.68
2023-01-07T16:29:16.288Z,7.13
2023-01-07T16:31:42.952Z,7.72
2023-01-07T16:34:24.548Z,7.75
2023-01-07T16:36:56.460Z,7.43
2023-01-07T16:39:30.050Z,13.90
2023-01-07T16:41:57.591Z,7.83
2023-01-07T16:44:42.278Z,7.88
2023-01-07T16:47:17.417Z,8.57
2023-01-07T16:49:45.106Z,8.20
2023-01-07T16:52:13.718Z,8.30
2023-01-07T16:54:41.646Z,7.30
2023-01-07T16:57:11.244Z,7.55
2023-01-07T16:59:54.003Z,7.25
2023-01-07T17:02:38.943Z,9.30
2023-01-07T17:05:25.814Z,7.07
2023-01-07T17:08:00.692Z,7.87
2023-01-07T17:10:30.338Z,7.68
2023-01-07T17:12:58.711Z,8.55
2023-01-07T17:15:25.305Z,8.23
2023-01-07T17:17:51.798Z,7.75
2023-01-07T17:20:19.940Z,9.03
2023-01-07T17:22:46.781Z,9.18
2023-01-07T17:25:14.915Z,9.60
2023-01-07T17:27:58.399Z,9.43
2023-01-07T17:30:33.196Z,8.75
2023-01-07T17:33:00.058Z,8.73
2023-01-07T17:35:26.898Z,9.20
2023-01-07T17:37:55.600Z,8.73
2023-01-07T17:40:22.193Z,10.18
2023-01-07T17:42:50.633Z,10.02
2023-01-07T17:45:19.886Z,10.40
2023-01-07T17:47:47.193Z,9.57
2023-01-07T17:50:15.380Z,11.07
2023-01-07T17:52:44.335Z,10.25
2023-01-07T17:55:16.278Z,10.20
2023-01-07T17:57:42.937Z,10.13
2023-01-07T18:00:18.256Z,11.48
2023-01-07T18:02:45.525Z,11.20
2023-01-07T18:05:15.231Z,9.93
2023-01-07T18:07:41.841Z,11.45
2023-01-07T18:10:11.431Z,11.07
2023-01-07T18:12:38.068Z,11.43
2023-01-07T18:15:04.971Z,10.98
2023-01-07T18:17:31.469Z,11.20
2023-01-07T18:19:57.970Z,9.57
2023-01-07T18:22:24.473Z,9.63
2023-01-07T18:24:51.091Z,10.52
2023-01-07T18:27:18.771Z,9.40
2023-01-07T18:29:45.240Z,9.80
2023-01-07T18:32:11.792Z,10.80
2023-01-07T18:34:38.321Z,8.80
2023-01-07T18:37:04.914Z,11.25
2023-01-07T18:39:31.410Z,9.50
2023-01-07T18:41:57.951Z,9.35
2023-01-07T18:44:25.103Z,11.10
2023-01-07T18:46:51.771Z,12.17
2023-01-07T18:49:18.373Z,13.98
2023-01-07T18:51:48.262Z,11.55
2023-01-07T18:54:15.520Z,9.65
2023-01-07T18:56:42.099Z,11.40
2023-01-07T18:59:08.603Z,10.67
2023-01-07T19:01:35.257Z,9.35
2023-01-07T19:04:01.918Z,12.25
2023-01-07T19:06:28.510Z,9.27
2023-01-07T19:08:54.991Z,11.23
2023-01-07T19:11:21.549Z,11.50
2023-01-07T19:13:48.023Z,11.50
2023-01-07T19:16:14.613Z,9.95
2023-01-07T19:18:41.224Z,9.95
2023-01-07T19:21:10.287Z,10.88
2023-01-07T19:23:36.820Z,9.10
2023-01-07T19:26:06.346Z,8.80
2023-01-07T19:28:32.987Z,9.27
2023-01-07T19:30:59.637Z,8.80
2023-01-07T19:33:26.146Z,8.50
2023-01-07T19:36:04.944Z,8.50
2023-01-07T19:38:31.425Z,9.40
2023-01-07T19:40:58.008Z,9.70
2023-01-07T19:43:24.611Z,9.13
2023-01-07T19:45:56.092Z,8.82
2023-01-07T19:48:23.309Z,9.10
2023-01-07T19:50:54.258Z,9.00
2023-01-07T19:53:20.898Z,10.75
2023-01-07T19:55:47.569Z,8.25
2023-01-07T19:58:14.033Z,9.50
2023-01-07T20:00:40.596Z,10.07
2023-01-07T20:03:07.161Z,9.95
2023-01-07T20:05:33.813Z,9.95
2023-01-07T20:08:00.285Z,9.27
2023-01-07T20:10:27.006Z,9.48
2023-01-07T20:12:53.635Z,10.20
2023-01-07T20:15:20.090Z,9.82
2023-01-07T20:17:46.694Z,9.13
2023-01-07T20:20:13.236Z,9.23
2023-01-07T20:22:39.808Z,10.48
2023-01-07T20:25:07.710Z,11.43
2023-01-07T20:27:35.102Z,10.50
2023-01-07T20:30:01.823Z,9.63
2023-01-07T20:32:28.453Z,8.55
2023-01-07T20:34:55.011Z,9.65
2023-01-07T20:37:21.632Z,10.10
2023-01-07T20:39:48.062Z,9.32
2023-01-07T20:42:14.702Z,9.85
2023-01-07T20:44:41.190Z,11.00
2023-01-07T20:47:07.695Z,10.02
2023-01-07T20:49:34.311Z,9.77
2023-01-07T20:52:00.881Z,9.88
2023-01-07T20:54:27.487Z,10.20
2023-01-07T20:56:54.178Z,10.20
2023-01-07T20:59:20.700Z,10.50
2023-01-07T21:01:47.383Z,10.27
2023-01-07T21:04:13.931Z,9.23
2023-01-07T21:06:40.471Z,9.95
2023-01-07T21:09:07.209Z,10.38
2023-01-07T21:11:33.700Z,9.68
2023-01-07T21:14:00.276Z,8.93
2023-01-07T21:16:26.779Z,9.30
2023-01-07T21:18:53.294Z,9.95
2023-01-07T21:21:21.559Z,10.05
2023-01-07T21:23:48.527Z,10.00
2023-01-07T21:26:15.618Z,10.20
2023-01-07T21:28:42.605Z,9.85
2023-01-07T21:31:11.988Z,10.32
2023-01-07T21:33:40.168Z,10.60
2023-01-07T21:36:14.445Z,10.40
2023-01-07T21:38:41.407Z,9.67
2023-01-07T21:41:09.898Z,9.35
2023-01-07T21:43:37.144Z,10.77
2023-01-07T21:46:05.410Z,9.90
2023-01-07T21:48:33.503Z,12.70
2023-01-07T21:51:04.648Z,11.07
2023-01-07T21:53:33.204Z,10.88
2023-01-07T21:56:08.872Z,10.10
2023-01-07T21:58:36.452Z,10.77
2023-01-07T22:01:04.952Z,11.43
2023-01-07T22:03:32.444Z,11.93
2023-01-07T22:06:01.085Z,10.82
2023-01-07T22:08:28.061Z,10.32
2023-01-07T22:10:54.560Z,12.95
2023-01-07T22:13:21.122Z,10.75
2023-01-07T22:15:47.842Z,10.93
2023-01-07T22:18:14.358Z,12.05
2023-01-07T22:20:40.983Z,12.32
2023-01-07T22:23:07.844Z,12.55
2023-01-07T22:25:34.600Z,11.70
2023-01-07T22:28:04.063Z,11.27
2023-01-07T22:30:32.879Z,11.77
2023-01-07T22:32:59.410Z,10.10
2023-01-07T22:35:28.578Z,10.98
2023-01-07T22:37:55.661Z,11.73
2023-01-07T22:40:22.445Z,10.93
2023-01-07T22:42:56.570Z,10.23
2023-01-07T22:45:36.244Z,11.82
2023-01-07T22:48:02.942Z,11.80
2023-01-07T22:50:29.580Z,11.20
2023-01-07T22:52:56.118Z,10.47
2023-01-07T22:55:22.976Z,10.80
2023-01-07T22:57:49.498Z,11.00
2023-01-07T23:00:46.366Z,11.90
2023-01-07T23:03:13.047Z,11.05
2023-01-07T23:05:39.637Z,9.47
2023-01-07T23:08:06.679Z,10.38
2023-01-07T23:10:33.211Z,10.73
2023-01-07T23:12:59.709Z,12.13
2023-01-07T23:15:26.254Z,9.73
2023-01-07T23:17:52.776Z,13.17
2023-01-07T23:20:19.258Z,11.32
2023-01-07T23:22:45.796Z,10.80
2023-01-07T23:25:12.567Z,10.60
2023-01-07T23:27:39.562Z,9.90
2023-01-07T23:30:06.945Z,10.10
2023-01-07T23:32:33.595Z,11.27
2023-01-07T23:35:00.159Z,10.80
2023-01-07T23:37:26.684Z,11.43
2023-01-07T23:39:53.225Z,10.23
2023-01-07T23:42:19.733Z,12.63
2023-01-07T23:44:46.176Z,9.98
2023-01-07T23:47:12.892Z,9.98
2023-01-07T23:49:39.393Z,10.25
2023-01-07T23:52:05.965Z,7.18
2023-01-07T23:54:32.469Z,8.37
2023-01-07T23:56:59.051Z,5.20
2023-01-07T23:59:25.685Z,5.60
